KMKG

Muskegon County Airport

Muskegon, Michigan, USA
METAR KMKG 260255Z 24012G18KT 10SM SCT250 03/M03 A3000 RMK AO2 SLP166 T00331028 51013
Observed Flight Rules
Feb-26 @ 02:55 UTC (20 minutes ago) Visual Flight Rules
Wind Visibility Clouds
240° at 12 knots
 Gusting to 18 knots
10 miles
  • Scattered at 25,000' AGL
Temperatures Readings
Current 3°C / 37°F
Dewpoint -3°C / 27°F
Humidity 65%
Altimeter 30" Hg
Pressure 1016.6 hPa
Elevation 191
METAR KMKG 260255Z 24012G18KT 10SM SCT250 03/M03 A3000 RMK AO2 SLP166 T00331028 51013
Observed Flight Rules
Feb-26 @ 02:55 UTC
(20 minutes ago)
VFR
Wind Visibility
240° at 12 knots
 Gusting to 18 knots
10 miles
Clouds
  • Scattered at 25,000' AGL
Temperature Dewpoint
3°C / 37°F -3°C / 27°F
Humidity Altimeter Pressure
65% 30" Hg 1016.6 hPa